createdAt,value
2023-02-02T00:01:13.215Z,3.28
2023-02-02T00:03:41.448Z,4.07
2023-02-02T00:06:09.806Z,2.95
2023-02-02T00:08:39.405Z,2.75
2023-02-02T00:11:07.493Z,3.05
2023-02-02T00:13:35.606Z,3.30
2023-02-02T00:16:33.752Z,3.67
2023-02-02T00:19:03.372Z,2.80
2023-02-02T00:21:31.667Z,3.15
2023-02-02T00:24:01.674Z,3.20
2023-02-02T00:26:29.846Z,3.25
2023-02-02T00:28:57.918Z,3.20
2023-02-02T00:31:26.027Z,3.42
2023-02-02T00:33:54.418Z,2.90
2023-02-02T00:36:22.931Z,2.92
2023-02-02T00:38:52.896Z,2.80
2023-02-02T00:41:22.500Z,3.47
2023-02-02T00:44:10.648Z,3.15
2023-02-02T00:46:40.118Z,2.75
2023-02-02T00:49:08.370Z,4.00
2023-02-02T00:51:36.852Z,3.00
2023-02-02T00:54:05.143Z,3.15
2023-02-02T00:56:34.728Z,3.42
2023-02-02T00:59:02.871Z,2.85
2023-02-02T01:01:30.970Z,3.25
2023-02-02T01:03:58.995Z,3.38
2023-02-02T01:06:27.224Z,2.83
2023-02-02T01:08:55.391Z,2.63
2023-02-02T01:11:23.610Z,3.22
2023-02-02T01:13:53.286Z,3.28
2023-02-02T01:16:22.447Z,2.90
2023-02-02T01:18:51.278Z,3.60
2023-02-02T01:21:19.352Z,3.10
2023-02-02T01:23:47.473Z,3.13
2023-02-02T01:26:15.816Z,3.25
2023-02-02T01:28:44.104Z,3.15
2023-02-02T01:31:16.280Z,2.47
2023-02-02T01:33:44.811Z,2.90
2023-02-02T01:36:14.875Z,3.25
2023-02-02T01:38:43.371Z,2.85
2023-02-02T01:41:14.449Z,3.08
2023-02-02T01:43:57.999Z,3.15
2023-02-02T01:46:29.262Z,2.78
2023-02-02T01:49:04.174Z,2.50
2023-02-02T01:51:38.068Z,2.85
2023-02-02T01:54:09.800Z,2.92
2023-02-02T01:56:40.918Z,2.83
2023-02-02T01:59:09.133Z,2.78
2023-02-02T02:01:38.544Z,2.65
2023-02-02T02:04:06.940Z,2.45
2023-02-02T02:06:35.269Z,3.05
2023-02-02T02:09:04.890Z,2.67
2023-02-02T02:11:33.543Z,3.30
2023-02-02T02:14:16.757Z,2.40
2023-02-02T02:17:11.922Z,3.00
2023-02-02T02:20:36.857Z,3.53
2023-02-02T02:23:40.493Z,2.67
2023-02-02T02:26:45.374Z,2.97
2023-02-02T02:29:43.973Z,2.78
2023-02-02T02:32:28.474Z,2.78
2023-02-02T02:35:00.737Z,2.88
2023-02-02T02:37:38.565Z,2.50
2023-02-02T02:40:12.215Z,2.78
2023-02-02T02:42:43.809Z,3.17
2023-02-02T02:45:13.477Z,2.10
2023-02-02T02:47:43.739Z,2.80
2023-02-02T02:50:12.548Z,3.10
2023-02-02T02:52:41.647Z,2.20
2023-02-02T02:55:11.945Z,3.15
2023-02-02T02:57:48.395Z,3.25
2023-02-02T03:00:30.758Z,3.03
2023-02-02T03:03:07.031Z,2.92
2023-02-02T03:05:40.415Z,3.28
2023-02-02T03:08:11.988Z,2.25
2023-02-02T03:10:42.467Z,3.20
2023-02-02T03:13:12.393Z,2.67
2023-02-02T03:15:42.456Z,3.92
2023-02-02T03:18:12.464Z,2.72
2023-02-02T03:20:40.607Z,3.15
2023-02-02T03:23:08.671Z,2.28
2023-02-02T03:25:37.032Z,2.75
2023-02-02T03:28:05.962Z,2.88
2023-02-02T03:30:34.972Z,2.60
2023-02-02T03:33:02.989Z,2.70
2023-02-02T03:35:32.465Z,2.30
2023-02-02T03:38:00.607Z,2.80
2023-02-02T03:40:29.574Z,2.55
2023-02-02T03:42:57.703Z,2.90
2023-02-02T03:45:28.309Z,2.53
2023-02-02T03:47:56.406Z,2.75
2023-02-02T03:50:25.219Z,2.72
2023-02-02T03:52:55.268Z,2.60
2023-02-02T03:55:23.578Z,2.45
2023-02-02T03:57:51.823Z,2.60
2023-02-02T04:00:20.516Z,2.33
2023-02-02T04:02:48.850Z,2.60
2023-02-02T04:05:17.083Z,2.90
2023-02-02T04:07:45.096Z,2.97
2023-02-02T04:10:14.566Z,2.88
2023-02-02T04:12:42.639Z,2.25
2023-02-02T04:15:11.439Z,2.53
2023-02-02T04:17:39.416Z,1.90
2023-02-02T04:20:08.665Z,3.08
2023-02-02T04:22:36.631Z,2.53
2023-02-02T04:25:04.937Z,2.05
2023-02-02T04:27:34.423Z,2.20
2023-02-02T04:30:02.761Z,2.70
2023-02-02T04:32:31.329Z,2.70
2023-02-02T04:34:59.643Z,2.60
2023-02-02T04:37:27.635Z,3.17
2023-02-02T04:39:55.740Z,2.67
2023-02-02T04:42:23.843Z,2.45
2023-02-02T04:44:53.305Z,2.90
2023-02-02T04:47:21.223Z,2.20
2023-02-02T04:49:49.305Z,2.58
2023-02-02T04:52:17.234Z,2.70
2023-02-02T04:54:45.446Z,1.75
2023-02-02T04:57:13.526Z,2.40
2023-02-02T04:59:42.548Z,2.15
2023-02-02T05:02:11.912Z,3.28
2023-02-02T05:04:40.038Z,2.45
2023-02-02T05:07:08.016Z,2.42
2023-02-02T05:09:36.360Z,2.83
2023-02-02T05:12:04.701Z,2.53
2023-02-02T05:14:32.737Z,2.60
2023-02-02T05:17:00.783Z,2.15
2023-02-02T05:19:30.299Z,2.20
2023-02-02T05:21:58.265Z,3.03
2023-02-02T05:24:27.690Z,2.45
2023-02-02T05:26:58.632Z,2.05
2023-02-02T05:29:26.932Z,2.22
2023-02-02T05:31:55.401Z,3.10
2023-02-02T05:34:23.586Z,2.25
2023-02-02T05:36:52.994Z,2.65
2023-02-02T05:39:21.069Z,3.03
2023-02-02T05:41:49.216Z,2.92
2023-02-02T05:44:17.886Z,2.85
2023-02-02T05:46:46.244Z,2.70
2023-02-02T05:49:15.077Z,2.50
2023-02-02T05:51:44.784Z,2.75
2023-02-02T05:54:19.262Z,2.08
2023-02-02T05:56:48.063Z,3.30
2023-02-02T05:59:17.450Z,2.65
2023-02-02T06:01:45.694Z,2.70
2023-02-02T06:04:14.329Z,3.05
2023-02-02T06:06:42.535Z,2.38
2023-02-02T06:09:13.054Z,2.80
2023-02-02T06:11:41.236Z,2.53
2023-02-02T06:14:09.369Z,3.00
2023-02-02T06:16:37.748Z,3.17
2023-02-02T06:19:05.965Z,2.90
2023-02-02T06:21:34.039Z,2.88
2023-02-02T06:24:02.249Z,2.47
2023-02-02T06:26:31.913Z,2.30
2023-02-02T06:29:00.041Z,2.53
2023-02-02T06:31:28.461Z,2.60
2023-02-02T06:33:57.764Z,2.83
2023-02-02T06:36:26.486Z,2.33
2023-02-02T06:38:55.476Z,2.42
2023-02-02T06:41:23.669Z,3.13
2023-02-02T06:43:53.135Z,3.00
2023-02-02T06:46:21.362Z,2.55
2023-02-02T06:48:49.439Z,2.38
2023-02-02T06:51:17.434Z,2.47
2023-02-02T06:53:45.592Z,2.80
2023-02-02T06:56:14.515Z,2.20
2023-02-02T06:58:42.862Z,2.17
2023-02-02T07:01:13.408Z,2.13
2023-02-02T07:03:42.136Z,2.35
2023-02-02T07:06:14.535Z,2.53
2023-02-02T07:08:43.166Z,2.65
2023-02-02T07:11:16.384Z,2.90
2023-02-02T07:13:45.338Z,2.03
2023-02-02T07:16:15.406Z,2.42
2023-02-02T07:18:44.113Z,2.38
2023-02-02T07:21:18.235Z,2.15
2023-02-02T07:23:46.910Z,2.10
2023-02-02T07:26:16.222Z,2.35
2023-02-02T07:28:44.576Z,2.25
2023-02-02T07:31:18.625Z,2.35
2023-02-02T07:33:47.158Z,2.20
2023-02-02T07:36:17.446Z,1.98
2023-02-02T07:38:46.410Z,1.92
2023-02-02T07:41:15.186Z,1.80
2023-02-02T07:43:43.526Z,2.15
2023-02-02T07:46:14.306Z,2.05
2023-02-02T07:48:44.144Z,2.22
2023-02-02T07:51:14.399Z,2.05
2023-02-02T07:53:45.059Z,2.25
2023-02-02T07:56:14.336Z,1.80
2023-02-02T07:58:43.172Z,1.92
2023-02-02T08:01:12.426Z,1.83
2023-02-02T08:03:40.837Z,2.20
2023-02-02T08:06:15.908Z,2.85
2023-02-02T08:08:44.137Z,1.80
2023-02-02T08:11:13.475Z,2.15
2023-02-02T08:13:42.079Z,2.30
2023-02-02T08:16:10.482Z,2.03
2023-02-02T08:18:39.564Z,1.98
2023-02-02T08:21:09.597Z,2.47
2023-02-02T08:23:40.321Z,1.90
2023-02-02T08:26:10.372Z,2.05
2023-02-02T08:28:38.668Z,2.33
2023-02-02T08:31:07.991Z,1.80
2023-02-02T08:33:36.231Z,2.30
2023-02-02T08:36:04.705Z,2.13
2023-02-02T08:38:32.835Z,1.90
2023-02-02T08:41:07.567Z,2.00
2023-02-02T08:43:36.069Z,1.92
2023-02-02T08:46:05.713Z,2.20
2023-02-02T08:48:35.111Z,2.45
2023-02-02T08:51:03.924Z,2.45
2023-02-02T08:53:32.583Z,2.25
2023-02-02T08:56:01.146Z,1.65
2023-02-02T08:58:30.547Z,2.80
2023-02-02T09:01:06.307Z,2.35
2023-02-02T09:03:34.744Z,1.85
2023-02-02T09:06:06.276Z,2.20
2023-02-02T09:08:34.799Z,1.90
2023-02-02T09:11:07.364Z,2.00
2023-02-02T09:13:37.966Z,1.73
2023-02-02T09:16:08.020Z,2.60
2023-02-02T09:18:36.041Z,2.08
2023-02-02T09:21:06.155Z,1.77
2023-02-02T09:23:35.037Z,1.80
2023-02-02T09:26:10.424Z,2.03
2023-02-02T09:28:40.476Z,1.95
2023-02-02T09:31:09.024Z,2.55
2023-02-02T09:33:37.540Z,2.22
2023-02-02T09:36:07.084Z,1.85
2023-02-02T09:38:35.383Z,2.28
2023-02-02T09:41:15.549Z,2.13
2023-02-02T09:43:52.191Z,1.90
2023-02-02T09:46:27.439Z,1.88
2023-02-02T09:48:59.592Z,1.77
2023-02-02T09:51:30.632Z,1.98
2023-02-02T09:54:00.538Z,1.92
2023-02-02T09:56:33.850Z,2.05
2023-02-02T09:59:18.881Z,2.20
2023-02-02T10:01:48.850Z,2.08
2023-02-02T10:04:20.156Z,2.00
2023-02-02T10:06:50.443Z,1.90
2023-02-02T10:09:27.597Z,2.38
2023-02-02T10:11:59.432Z,1.83
2023-02-02T10:14:32.425Z,2.08
2023-02-02T10:17:09.319Z,1.83
2023-02-02T10:19:38.074Z,1.63
2023-02-02T10:22:08.727Z,1.63
2023-02-02T10:24:38.174Z,2.03
2023-02-02T10:27:10.079Z,2.38
2023-02-02T10:29:49.468Z,2.20
2023-02-02T10:32:23.638Z,2.00
2023-02-02T10:35:13.790Z,2.30
2023-02-02T10:37:50.247Z,1.98
2023-02-02T10:40:26.740Z,2.00
2023-02-02T10:43:23.830Z,2.03
2023-02-02T10:45:53.482Z,1.85
2023-02-02T10:48:23.783Z,1.73
2023-02-02T10:50:54.631Z,1.77
2023-02-02T10:53:25.879Z,1.67
2023-02-02T10:55:57.486Z,2.10
2023-02-02T10:58:29.037Z,1.77
2023-02-02T11:01:01.350Z,2.10
2023-02-02T11:03:31.046Z,3.13
2023-02-02T11:06:25.130Z,1.95
2023-02-02T11:08:56.906Z,1.67
2023-02-02T11:11:26.166Z,2.25
2023-02-02T11:13:58.319Z,2.50
2023-02-02T11:16:41.448Z,1.95
2023-02-02T11:19:27.895Z,1.92
2023-02-02T11:21:58.012Z,2.55
2023-02-02T11:24:28.877Z,2.05
2023-02-02T11:26:58.304Z,2.00
2023-02-02T11:29:29.266Z,1.77
2023-02-02T11:31:59.463Z,2.08
2023-02-02T11:34:29.363Z,2.50
2023-02-02T11:37:10.577Z,2.00
2023-02-02T11:39:38.915Z,1.88
2023-02-02T11:42:09.208Z,1.90
2023-02-02T11:44:39.973Z,2.00
2023-02-02T11:47:09.758Z,1.90
2023-02-02T11:49:43.378Z,1.80
2023-02-02T11:52:20.374Z,1.98
2023-02-02T11:54:50.025Z,1.80
2023-02-02T11:57:20.188Z,2.00
2023-02-02T11:59:49.468Z,1.95
2023-02-02T12:02:30.406Z,1.90
2023-02-02T12:05:14.777Z,1.80
2023-02-02T12:07:44.547Z,2.00
2023-02-02T12:10:18.031Z,1.83
2023-02-02T12:12:53.419Z,1.90
2023-02-02T12:15:28.486Z,1.77
2023-02-02T12:18:05.520Z,1.83
2023-02-02T12:20:41.173Z,1.90
2023-02-02T12:23:24.229Z,2.63
2023-02-02T12:26:00.277Z,2.08
2023-02-02T12:28:41.458Z,1.90
2023-02-02T12:31:15.863Z,2.08
2023-02-02T12:33:52.236Z,1.77
2023-02-02T12:36:30.253Z,2.03
2023-02-02T12:39:10.909Z,2.65
2023-02-02T12:41:49.589Z,1.80
2023-02-02T12:44:20.973Z,2.00
2023-02-02T12:47:00.550Z,1.75
2023-02-02T12:49:39.790Z,1.92
2023-02-02T12:52:17.962Z,1.60
2023-02-02T12:55:08.915Z,1.60
2023-02-02T12:57:47.430Z,1.90
2023-02-02T13:00:26.963Z,1.90
2023-02-02T13:03:04.830Z,1.90
2023-02-02T13:05:55.681Z,1.63
2023-02-02T13:08:27.266Z,1.80
2023-02-02T13:10:57.101Z,1.67
2023-02-02T13:13:27.386Z,1.50
2023-02-02T13:15:58.676Z,2.17
2023-02-02T13:18:29.143Z,1.60
2023-02-02T13:21:03.430Z,1.77
2023-02-02T13:23:34.317Z,1.90
2023-02-02T13:26:05.968Z,1.70
2023-02-02T13:28:41.667Z,1.67
2023-02-02T13:31:15.059Z,1.73
2023-02-02T13:33:44.952Z,1.67
2023-02-02T13:36:25.633Z,1.23
2023-02-02T13:38:55.881Z,2.00
2023-02-02T13:41:24.697Z,1.77
2023-02-02T13:43:56.550Z,1.85
2023-02-02T13:46:32.474Z,1.40
2023-02-02T13:49:06.781Z,1.98
2023-02-02T13:51:51.472Z,1.70
2023-02-02T13:54:50.565Z,1.45
2023-02-02T13:57:29.484Z,1.52
2023-02-02T14:00:02.187Z,1.73
2023-02-02T14:02:34.245Z,1.60
2023-02-02T14:05:04.738Z,1.60
2023-02-02T14:07:41.998Z,1.63
2023-02-02T14:10:23.976Z,1.40
2023-02-02T14:12:52.666Z,1.35
2023-02-02T14:15:21.205Z,2.38
2023-02-02T14:17:56.355Z,2.80
2023-02-02T14:20:51.548Z,1.98
2023-02-02T14:23:52.842Z,2.90
2023-02-02T14:26:37.374Z,2.60
2023-02-02T14:29:11.537Z,5.38
2023-02-02T14:31:53.040Z,3.05
2023-02-02T14:34:35.225Z,2.65
2023-02-02T14:37:34.801Z,2.83
2023-02-02T14:40:21.503Z,2.72
2023-02-02T14:43:15.301Z,2.05
2023-02-02T14:45:44.408Z,1.70
2023-02-02T14:48:14.071Z,1.67
2023-02-02T14:50:46.484Z,2.30
2023-02-02T14:53:22.439Z,1.67
2023-02-02T14:55:59.659Z,1.70
2023-02-02T14:58:32.135Z,1.90
2023-02-02T15:01:09.107Z,2.30
2023-02-02T15:03:53.162Z,1.92
2023-02-02T15:06:32.768Z,1.90
2023-02-02T15:09:38.831Z,1.88
2023-02-02T15:12:31.050Z,2.35
2023-02-02T15:15:05.484Z,2.40
2023-02-02T15:17:36.115Z,2.33
2023-02-02T15:20:09.969Z,2.40
2023-02-02T15:22:42.866Z,2.30
2023-02-02T15:25:18.688Z,2.45
2023-02-02T15:27:56.883Z,2.60
2023-02-02T15:30:26.104Z,1.75
2023-02-02T15:32:54.835Z,2.55
2023-02-02T15:35:25.933Z,1.90
2023-02-02T15:37:56.953Z,2.08
2023-02-02T15:40:26.320Z,2.15
2023-02-02T15:42:58.451Z,1.98
2023-02-02T15:45:48.161Z,1.98
2023-02-02T15:48:21.842Z,1.92
2023-02-02T15:50:54.639Z,2.30
2023-02-02T15:53:25.640Z,1.80
2023-02-02T15:55:54.522Z,2.05
2023-02-02T15:58:30.627Z,2.20
2023-02-02T16:01:00.827Z,2.20
2023-02-02T16:03:35.283Z,2.20
2023-02-02T16:06:06.233Z,2.20
2023-02-02T16:08:34.982Z,2.30
2023-02-02T16:11:05.197Z,2.50
2023-02-02T16:13:34.868Z,2.45
2023-02-02T16:16:06.103Z,1.98
2023-02-02T16:18:34.903Z,3.22
2023-02-02T16:21:08.042Z,2.60
2023-02-02T16:23:37.614Z,2.58
2023-02-02T16:26:07.150Z,2.15
2023-02-02T16:28:36.915Z,2.28
2023-02-02T16:31:05.641Z,2.30
2023-02-02T16:33:38.778Z,2.35
2023-02-02T16:36:25.127Z,1.88
2023-02-02T16:38:55.004Z,1.98
2023-02-02T16:41:28.533Z,2.10
2023-02-02T16:43:58.079Z,2.78
2023-02-02T16:46:42.862Z,3.75
2023-02-02T16:49:16.674Z,3.38
2023-02-02T16:51:45.422Z,3.97
2023-02-02T16:54:20.191Z,3.22
2023-02-02T16:56:50.664Z,3.13
2023-02-02T16:59:23.985Z,2.90
2023-02-02T17:01:54.526Z,3.17
2023-02-02T17:04:25.856Z,2.92
2023-02-02T17:06:54.424Z,2.88
2023-02-02T17:09:34.776Z,3.58
2023-02-02T17:12:14.220Z,2.90
2023-02-02T17:14:54.717Z,3.05
2023-02-02T17:17:23.050Z,3.25
2023-02-02T17:19:51.319Z,2.75
2023-02-02T17:22:21.620Z,2.97
2023-02-02T17:24:50.955Z,3.25
2023-02-02T17:27:20.721Z,3.58
2023-02-02T17:29:48.776Z,3.55
2023-02-02T17:32:18.111Z,3.20
2023-02-02T17:34:46.462Z,3.30
2023-02-02T17:37:14.599Z,3.72
2023-02-02T17:39:42.759Z,4.00
2023-02-02T17:42:26.691Z,3.38
2023-02-02T17:44:54.836Z,3.80
2023-02-02T17:47:24.345Z,3.58
2023-02-02T17:49:52.572Z,3.38
2023-02-02T17:52:20.796Z,3.83
2023-02-02T17:54:48.949Z,3.45
2023-02-02T17:57:17.070Z,3.55
2023-02-02T17:59:45.121Z,4.00
2023-02-02T18:02:14.515Z,2.97
2023-02-02T18:04:45.609Z,3.03
2023-02-02T18:07:14.203Z,3.22
2023-02-02T18:09:42.309Z,3.00
2023-02-02T18:12:10.740Z,3.10
2023-02-02T18:14:39.081Z,3.45
2023-02-02T18:17:08.241Z,3.47
2023-02-02T18:19:36.352Z,3.35
2023-02-02T18:22:06.284Z,3.58
2023-02-02T18:24:34.469Z,4.15
2023-02-02T18:27:02.740Z,2.90
2023-02-02T18:29:30.884Z,2.97
2023-02-02T18:31:59.362Z,2.85
2023-02-02T18:34:30.678Z,3.22
2023-02-02T18:36:58.919Z,2.65
2023-02-02T18:39:28.589Z,3.15
2023-02-02T18:41:56.863Z,3.65
2023-02-02T18:44:25.229Z,5.18
2023-02-02T18:46:53.277Z,4.28
2023-02-02T18:49:21.705Z,7.30
2023-02-02T18:51:50.336Z,3.30
2023-02-02T18:54:18.412Z,3.92
2023-02-02T18:56:47.707Z,3.65
2023-02-02T18:59:16.081Z,2.90
2023-02-02T19:01:44.322Z,3.53
2023-02-02T19:04:12.671Z,3.60
2023-02-02T19:06:58.476Z,2.70
2023-02-02T19:09:26.576Z,3.00
2023-02-02T19:11:56.253Z,3.60
2023-02-02T19:14:26.767Z,3.40
2023-02-02T19:16:57.338Z,3.08
2023-02-02T19:19:29.166Z,3.45
2023-02-02T19:21:58.100Z,3.53
2023-02-02T19:24:27.134Z,3.80
2023-02-02T19:26:57.049Z,3.53
2023-02-02T19:29:26.623Z,3.67
2023-02-02T19:31:59.791Z,4.15
2023-02-02T19:34:28.315Z,3.63
2023-02-02T19:36:56.694Z,3.45
2023-02-02T19:39:28.269Z,3.35
2023-02-02T19:41:59.958Z,3.42
2023-02-02T19:44:31.179Z,3.47
2023-02-02T19:47:00.503Z,3.53
2023-02-02T19:49:32.809Z,2.78
2023-02-02T19:52:01.309Z,2.42
2023-02-02T19:54:33.267Z,3.17
2023-02-02T19:57:11.428Z,2.80
2023-02-02T19:59:39.505Z,3.33
2023-02-02T20:02:27.039Z,3.50
2023-02-02T20:05:01.637Z,3.00
2023-02-02T20:07:30.442Z,3.15
2023-02-02T20:10:01.407Z,2.60
2023-02-02T20:12:33.021Z,2.75
2023-02-02T20:15:02.312Z,3.20
2023-02-02T20:17:34.409Z,2.92
2023-02-02T20:20:02.599Z,2.80
2023-02-02T20:22:32.695Z,2.92
2023-02-02T20:25:04.304Z,2.90
2023-02-02T20:27:34.748Z,3.25
2023-02-02T20:30:22.958Z,2.83
2023-02-02T20:32:55.240Z,3.20
2023-02-02T20:35:34.732Z,3.08
2023-02-02T20:38:03.210Z,3.35
2023-02-02T20:40:31.650Z,2.40
2023-02-02T20:43:00.955Z,2.42
2023-02-02T20:45:29.133Z,2.08
2023-02-02T20:47:57.320Z,2.53
2023-02-02T20:50:25.699Z,2.33
2023-02-02T20:52:55.767Z,2.42
2023-02-02T20:55:23.838Z,2.58
2023-02-02T20:57:51.907Z,2.20
2023-02-02T21:00:26.983Z,2.65
2023-02-02T21:02:56.145Z,2.25
2023-02-02T21:05:24.591Z,2.80
2023-02-02T21:07:55.005Z,2.60
2023-02-02T21:10:23.792Z,2.95
2023-02-02T21:12:52.246Z,3.10
2023-02-02T21:15:21.662Z,2.80
2023-02-02T21:17:50.416Z,2.95
2023-02-02T21:20:18.659Z,2.78
2023-02-02T21:22:46.792Z,3.08
2023-02-02T21:25:14.828Z,2.80
2023-02-02T21:27:44.525Z,2.60
2023-02-02T21:30:13.979Z,2.75
2023-02-02T21:32:44.235Z,3.78
2023-02-02T21:35:14.188Z,2.85
2023-02-02T21:37:44.206Z,3.17
2023-02-02T21:40:15.666Z,2.88
2023-02-02T21:42:48.505Z,2.72
2023-02-02T21:45:32.127Z,2.60
2023-02-02T21:48:03.060Z,2.80
2023-02-02T21:50:33.289Z,2.63
2023-02-02T21:53:15.655Z,3.10
2023-02-02T21:55:44.845Z,2.70
2023-02-02T21:58:18.868Z,2.60
2023-02-02T22:00:47.164Z,3.95
2023-02-02T22:03:28.619Z,2.40
2023-02-02T22:06:27.304Z,2.65
2023-02-02T22:09:00.304Z,2.35
2023-02-02T22:11:31.198Z,2.65
2023-02-02T22:14:03.546Z,2.65
2023-02-02T22:16:36.606Z,2.75
2023-02-02T22:19:29.998Z,2.50
2023-02-02T22:22:12.069Z,2.40
2023-02-02T22:24:40.373Z,2.45
2023-02-02T22:27:18.602Z,2.92
2023-02-02T22:29:46.739Z,2.20
2023-02-02T22:32:14.830Z,2.50
2023-02-02T22:34:44.564Z,2.17
2023-02-02T22:37:12.849Z,2.05
2023-02-02T22:39:42.832Z,2.28
2023-02-02T22:42:11.339Z,2.67
2023-02-02T22:44:39.637Z,2.55
2023-02-02T22:47:07.832Z,2.58
2023-02-02T22:49:35.895Z,2.00
2023-02-02T22:52:05.546Z,2.38
2023-02-02T22:54:33.586Z,2.38
2023-02-02T22:57:01.659Z,2.53
2023-02-02T22:59:29.801Z,2.78
2023-02-02T23:01:57.798Z,2.58
2023-02-02T23:04:25.850Z,2.30
2023-02-02T23:06:53.964Z,2.30
2023-02-02T23:09:23.248Z,2.53
2023-02-02T23:11:51.286Z,2.10
2023-02-02T23:14:19.338Z,2.65
2023-02-02T23:16:47.587Z,2.25
2023-02-02T23:19:15.720Z,2.40
2023-02-02T23:21:43.739Z,2.72
2023-02-02T23:24:12.125Z,3.55
2023-02-02T23:26:41.860Z,3.10
2023-02-02T23:29:09.970Z,3.13
2023-02-02T23:31:38.194Z,3.13
2023-02-02T23:34:07.311Z,3.00
2023-02-02T23:36:35.232Z,3.25
2023-02-02T23:39:03.330Z,3.55
2023-02-02T23:41:31.323Z,3.13
2023-02-02T23:44:00.715Z,3.17
2023-02-02T23:46:29.088Z,2.72
2023-02-02T23:48:59.443Z,2.65
2023-02-02T23:51:27.698Z,2.70
2023-02-02T23:53:55.939Z,2.50
2023-02-02T23:56:24.022Z,2.67
2023-02-02T23:58:52.168Z,2.50
